aviador You're here:

KSGF Decoded Metar

SPRINGFIELD in MO, USA
Report Time2017-03-23 23:52:00
UTC Time2017-03-24 00:07:00
Flight Rules vfr VFR
Wind170° at 15 Gusting to 25 kt
W.Decomp.*RWY 14: 13.4 kt HW 6.8 kt RCW
RWY 20: 12.6 kt HW 8.2 kt LCW
W.Rank170° ranks 3
Current wind is above 170° avg. (9.3)
Visibility9999 m
Phenomena:N/A
Clouds:N/A
Expected CloudBase > 7,600 ft AGL from Temp-Dew spread
CeilingNone
Temp24°C (ISA +12)
Dew Point05°C (29% RH)
AAT17.4°C
QNH1013 hPa
Density Alt2,740 ft
Elevation1,280 ft
Report Wrong Elevation
Raw Report
KSGF 232352Z 17015G25KT 10SM CLR 24/05 A2991 RMK AO2 PK WND
16028/2341 SLP123 T02390050 10256 20200 56018=

Extra information for KSGF:More info

Metar Taf Metar & Taf Last 4 Metars F.Rules Stats Wind Profile Meteogram Temp Stats Airport Information Weather charts Add Link Nearby VenuesMetar ALERT Operation Metar Decoded Social comments

AIRNAV info for KSGF